Time;durP1;ratioP1;P1;durP2;ratioP2;P2;SDS_P1;SDS_P2;PMS_P1;PMS_P2;Temp;Humidity;BMP_temperature;BMP_pressure;BME280_temperature;BME280_humidity;BME280_pressure;Samples;Min_cycle;Max_cycle;Signal;HPM_P1;HPM_P2
2022/03/12 00:00:50;;;;;;;12.27;6.22;;;5.90;38.40;;;;;;4993289;28;20409;-83
2022/03/12 00:03:17;;;;;;;14.50;5.43;;;5.80;38.60;;;;;;4993897;28;20043;-84
2022/03/12 00:05:48;;;;;;;13.45;6.07;;;5.70;38.70;;;;;;4993246;28;20043;-84
2022/03/12 00:08:14;;;;;;;16.13;6.30;;;5.70;38.80;;;;;;4993559;28;20413;-84
2022/03/12 00:10:43;;;;;;;11.77;5.35;;;5.80;38.80;;;;;;4993784;28;20042;-84
2022/03/12 00:13:09;;;;;;;11.55;5.97;;;5.60;38.90;;;;;;4993559;28;20050;-84
2022/03/12 00:15:37;;;;;;;15.82;5.63;;;5.70;38.70;;;;;;4993595;28;20038;-84
2022/03/12 00:18:05;;;;;;;10.52;5.60;;;5.80;38.80;;;;;;4992976;28;20045;-84
2022/03/12 00:20:33;;;;;;;13.55;6.43;;;5.80;38.30;;;;;;4993059;28;20038;-84
2022/03/12 00:22:59;;;;;;;13.73;6.25;;;5.80;38.30;;;;;;4992527;28;20057;-84
2022/03/12 00:25:25;;;;;;;12.30;6.40;;;5.80;38.80;;;;;;4993151;28;20034;-84
2022/03/12 00:27:52;;;;;;;12.30;5.75;;;5.70;39.10;;;;;;4993409;28;20129;-84
2022/03/12 00:30:19;;;;;;;14.13;5.07;;;5.60;39.50;;;;;;4992847;28;20674;-84
2022/03/12 00:32:48;;;;;;;13.73;6.30;;;5.70;39.10;;;;;;4975663;28;20121;-84
2022/03/12 00:35:15;;;;;;;12.45;5.97;;;5.60;39.50;;;;;;4992790;28;20050;-84
2022/03/12 00:37:41;;;;;;;9.85;5.55;;;5.60;39.60;;;;;;4993053;28;20034;-84
2022/03/12 00:40:07;;;;;;;12.18;5.50;;;5.60;39.50;;;;;;4993106;28;20100;-84
2022/03/12 00:42:33;;;;;;;9.52;5.70;;;5.50;40.30;;;;;;4993130;28;20507;-83
2022/03/12 00:44:59;;;;;;;13.73;5.78;;;5.40;40.70;;;;;;4993189;28;20050;-84
2022/03/12 00:47:26;;;;;;;17.40;5.85;;;5.50;40.40;;;;;;4993297;28;20149;-84
2022/03/12 00:49:52;;;;;;;11.98;6.20;;;5.50;40.60;;;;;;4992904;28;20501;-84
2022/03/12 00:52:18;;;;;;;11.80;6.53;;;5.40;40.60;;;;;;4993000;28;20460;-83
2022/03/12 00:54:44;;;;;;;15.48;6.63;;;5.50;41.10;;;;;;4993244;28;20042;-83
2022/03/12 00:57:11;;;;;;;11.23;5.55;;;5.40;40.70;;;;;;4993171;28;20102;-84
2022/03/12 00:59:40;;;;;;;10.73;5.60;;;5.50;40.60;;;;;;4993202;28;20046;-85
2022/03/12 01:02:08;;;;;;;14.00;5.72;;;5.50;40.50;;;;;;4992817;28;20501;-84
2022/03/12 01:04:34;;;;;;;11.48;6.25;;;5.50;40.60;;;;;;4991758;28;20101;-83
2022/03/12 01:06:59;;;;;;;11.90;5.10;;;5.40;40.40;;;;;;4993082;28;20043;-84
2022/03/12 01:09:25;;;;;;;11.40;5.88;;;5.50;40.20;;;;;;4992467;28;20039;-84
2022/03/12 01:11:50;;;;;;;11.60;5.28;;;5.50;40.30;;;;;;4993010;28;20074;-84
2022/03/12 01:14:16;;;;;;;9.23;5.55;;;5.50;40.90;;;;;;4995523;28;20519;-84
2022/03/12 01:16:42;;;;;;;12.25;5.75;;;5.50;40.10;;;;;;4995949;28;20070;-84
2022/03/12 01:19:08;;;;;;;13.73;6.07;;;5.50;40.10;;;;;;4994612;28;20564;-84
2022/03/12 01:21:33;;;;;;;10.30;5.43;;;5.50;40.50;;;;;;4995918;28;20409;-84
2022/03/12 01:23:59;;;;;;;11.10;5.15;;;5.40;40.50;;;;;;4996030;28;20043;-84
2022/03/12 01:26:25;;;;;;;11.85;5.35;;;5.50;40.70;;;;;;4995863;28;20050;-84
2022/03/12 01:28:51;;;;;;;10.20;5.53;;;5.50;40.70;;;;;;4996378;28;20046;-83
2022/03/12 01:31:17;;;;;;;16.10;5.85;;;5.40;41.00;;;;;;4996046;28;20038;-84
2022/03/12 01:33:43;;;;;;;13.52;6.25;;;5.40;41.60;;;;;;4995648;28;20050;-84
2022/03/12 01:36:09;;;;;;;13.32;6.13;;;5.40;41.70;;;;;;4994226;28;20504;-84
2022/03/12 01:38:46;;;;;;;11.75;5.82;;;5.30;42.20;;;;;;4995657;28;20405;-84
2022/03/12 01:41:11;;;;;;;13.32;5.80;;;5.30;42.30;;;;;;4995913;28;20325;-84
2022/03/12 01:43:37;;;;;;;10.50;5.40;;;5.30;42.70;;;;;;4995336;28;20091;-84
2022/03/12 01:46:10;;;;;;;13.38;5.63;;;5.40;42.00;;;;;;4995168;28;20548;-84
2022/03/12 01:48:41;;;;;;;13.60;5.97;;;5.40;42.40;;;;;;4995131;28;20042;-83
2022/03/12 01:51:06;;;;;;;11.55;6.60;;;5.30;42.60;;;;;;4996471;28;20046;-84
2022/03/12 01:53:32;;;;;;;11.25;5.85;;;5.40;42.30;;;;;;4997301;28;20109;-84
2022/03/12 01:55:58;;;;;;;10.23;5.50;;;5.40;41.70;;;;;;4995603;28;20053;-83
2022/03/12 01:58:24;;;;;;;11.93;6.32;;;5.40;41.90;;;;;;4995246;28;20046;-83
2022/03/12 02:00:51;;;;;;;15.05;6.55;;;5.50;42.40;;;;;;4995591;28;20050;-83
2022/03/12 02:03:23;;;;;;;13.48;6.70;;;5.40;42.80;;;;;;4995322;28;20042;-83
2022/03/12 02:05:50;;;;;;;10.40;5.78;;;5.40;43.00;;;;;;4995383;28;20124;-84
2022/03/12 02:08:16;;;;;;;13.07;6.15;;;5.30;43.30;;;;;;4994980;28;20544;-84
2022/03/12 02:10:43;;;;;;;11.77;6.25;;;5.40;43.50;;;;;;4995162;28;20074;-83
2022/03/12 02:13:09;;;;;;;13.27;6.32;;;5.40;43.80;;;;;;4994935;28;20039;-83
2022/03/12 02:15:36;;;;;;;16.13;6.20;;;5.40;43.70;;;;;;4995087;28;20053;-84
2022/03/12 02:18:02;;;;;;;15.48;6.22;;;5.30;44.40;;;;;;4993412;28;20104;-84
2022/03/12 02:20:28;;;;;;;10.38;6.03;;;5.30;45.00;;;;;;4994968;28;20038;-84
2022/03/12 02:22:54;;;;;;;12.15;6.63;;;5.30;45.30;;;;;;4995029;28;20045;-83
2022/03/12 02:25:28;;;;;;;13.70;6.82;;;5.20;46.10;;;;;;4994653;28;20066;-83
2022/03/12 02:27:54;;;;;;;12.45;6.50;;;5.20;46.90;;;;;;4995274;28;20124;-83
2022/03/12 02:30:21;;;;;;;11.43;6.30;;;5.20;46.20;;;;;;4994888;28;20085;-83
2022/03/12 02:32:47;;;;;;;15.27;6.82;;;5.20;46.70;;;;;;4993163;28;20497;-83
2022/03/12 02:35:13;;;;;;;12.63;6.07;;;5.20;46.60;;;;;;4994757;28;20122;-83
2022/03/12 02:37:45;;;;;;;12.73;6.22;;;5.20;47.30;;;;;;4994843;28;20042;-83
2022/03/12 02:40:12;;;;;;;10.90;5.85;;;5.20;46.90;;;;;;4994838;28;20042;-83
2022/03/12 02:42:39;;;;;;;11.73;6.57;;;5.10;48.00;;;;;;5182594;23;20031;-78
2022/03/12 02:45:08;;;;;;;10.60;5.80;;;5.00;48.10;;;;;;5011299;28;20053;-78
2022/03/12 02:47:35;;;;;;;13.20;6.60;;;5.00;48.70;;;;;;4996887;28;20041;-78
2022/03/12 02:50:06;;;;;;;13.00;5.75;;;5.00;48.70;;;;;;5014394;28;20065;-77
2022/03/12 02:52:33;;;;;;;14.50;6.22;;;5.00;48.50;;;;;;5012689;28;20042;-78
2022/03/12 02:54:59;;;;;;;13.70;6.70;;;5.00;48.60;;;;;;5014317;28;20064;-78
2022/03/12 02:57:27;;;;;;;15.60;7.20;;;5.10;48.20;;;;;;5014685;28;20042;-78
2022/03/12 03:00:03;;;;;;;15.73;6.70;;;5.10;48.10;;;;;;5013176;28;20050;-78
2022/03/12 03:02:39;;;;;;;10.80;5.25;;;5.00;48.20;;;;;;5014482;28;20045;-78
2022/03/12 03:08:06;;;;;;;11.30;6.40;;;5.10;47.70;;;;;;5013245;28;20058;-78
2022/03/12 03:10:37;;;;;;;13.02;6.15;;;5.10;47.50;;;;;;5014473;28;20042;-79
2022/03/12 03:13:20;;;;;;;12.35;5.63;;;5.10;47.30;;;;;;5014650;28;20038;-78
2022/03/12 03:15:53;;;;;;;17.95;6.50;;;5.20;46.80;;;;;;5013311;28;20057;-78
2022/03/12 03:18:22;;;;;;;14.65;5.85;;;5.20;46.10;;;;;;5004959;28;20046;-78
2022/03/12 03:20:48;;;;;;;15.05;6.38;;;5.20;45.40;;;;;;4994541;28;20409;-78
2022/03/12 03:23:14;;;;;;;10.05;5.93;;;5.30;45.80;;;;;;4994462;28;20038;-78
2022/03/12 03:25:40;;;;;;;13.25;6.30;;;5.30;45.10;;;;;;5002564;28;20049;-79
2022/03/12 03:28:07;;;;;;;12.43;6.60;;;5.30;45.50;;;;;;5014209;28;20046;-78
2022/03/12 03:30:35;;;;;;;11.48;6.65;;;5.30;44.30;;;;;;5014284;28;20100;-79
2022/03/12 03:33:05;;;;;;;11.50;6.13;;;5.40;44.40;;;;;;5013919;28;20073;-79
2022/03/12 03:35:30;;;;;;;12.00;6.30;;;5.80;44.70;;;;;;5013391;28;20112;-78
2022/03/12 03:37:57;;;;;;;13.55;6.47;;;5.30;44.40;;;;;;5013913;28;20604;-78
2022/03/12 03:40:23;;;;;;;12.82;6.53;;;5.40;44.00;;;;;;5012530;28;20179;-78
2022/03/12 03:42:49;;;;;;;12.68;7.65;;;5.30;44.10;;;;;;5012435;28;20373;-79
2022/03/12 03:45:22;;;;;;;10.38;6.00;;;5.30;44.30;;;;;;5013962;28;20048;-79
2022/03/12 03:47:51;;;;;;;11.13;5.60;;;5.30;44.60;;;;;;5013475;28;20505;-79
2022/03/12 03:50:20;;;;;;;11.60;6.38;;;5.30;44.30;;;;;;5013528;28;20034;-79
2022/03/12 03:52:46;;;;;;;13.57;6.63;;;5.20;44.90;;;;;;5012323;28;20067;-79
2022/03/12 03:55:12;;;;;;;15.63;5.88;;;5.20;44.70;;;;;;5013492;28;20052;-79
2022/03/12 03:57:38;;;;;;;18.75;6.93;;;5.20;45.20;;;;;;5013051;28;20069;-79
2022/03/12 04:00:05;;;;;;;18.20;6.07;;;5.20;44.30;;;;;;5013541;28;20038;-78
2022/03/12 04:02:30;;;;;;;12.45;6.70;;;5.20;45.10;;;;;;5013417;28;20077;-78
2022/03/12 04:04:56;;;;;;;14.73;6.50;;;5.10;44.90;;;;;;5013432;28;20074;-79
2022/03/12 04:07:21;;;;;;;11.07;5.63;;;5.10;44.70;;;;;;5012042;28;20049;-78
2022/03/12 04:09:48;;;;;;;11.65;6.88;;;5.60;45.60;;;;;;5013329;28;20101;-79
2022/03/12 04:12:14;;;;;;;11.20;6.22;;;5.00;45.50;;;;;;5012554;28;20111;-79
2022/03/12 04:14:40;;;;;;;13.45;6.05;;;5.00;45.70;;;;;;5013444;28;20497;-79
2022/03/12 04:17:05;;;;;;;11.30;6.53;;;5.00;45.50;;;;;;5013275;28;20045;-79
2022/03/12 04:19:33;;;;;;;15.77;6.47;;;4.90;45.80;;;;;;5013149;28;20408;-78
2022/03/12 04:21:58;;;;;;;10.20;5.60;;;4.80;46.20;;;;;;5013208;28;20532;-78
2022/03/12 04:24:24;;;;;;;12.55;6.28;;;4.90;45.20;;;;;;5013308;28;20116;-78
2022/03/12 04:26:50;;;;;;;14.18;7.45;;;4.90;45.50;;;;;;5013545;28;20393;-79
2022/03/12 04:29:18;;;;;;;15.00;6.72;;;4.80;46.10;;;;;;5013420;28;20054;-79
2022/03/12 04:31:46;;;;;;;13.00;6.05;;;5.20;46.40;;;;;;4995659;28;20053;-78
2022/03/12 04:34:13;;;;;;;14.52;5.97;;;4.70;46.80;;;;;;5013506;28;20061;-79
2022/03/12 04:36:41;;;;;;;11.60;5.72;;;4.70;46.60;;;;;;5013012;28;20050;-79
2022/03/12 04:39:09;;;;;;;11.57;6.15;;;4.70;47.10;;;;;;5012479;28;20054;-79
2022/03/12 04:41:36;;;;;;;9.10;5.47;;;4.70;47.20;;;;;;5013241;28;20042;-78
2022/03/12 04:44:04;;;;;;;11.50;6.47;;;4.70;47.10;;;;;;5012950;28;20054;-78
2022/03/12 04:46:29;;;;;;;10.38;6.00;;;4.70;47.00;;;;;;5013335;28;20412;-78
2022/03/12 04:48:55;;;;;;;11.15;5.55;;;4.70;47.10;;;;;;5017115;28;20334;-79
2022/03/12 04:51:21;;;;;;;12.57;6.75;;;4.70;46.80;;;;;;5016725;28;20116;-79
2022/03/12 04:53:46;;;;;;;11.35;6.25;;;4.80;46.50;;;;;;5016515;28;20147;-79
2022/03/12 04:56:12;;;;;;;11.93;5.78;;;4.80;46.60;;;;;;5016944;28;20046;-78
2022/03/12 04:58:37;;;;;;;12.43;5.57;;;4.70;47.00;;;;;;5016679;28;20053;-79
2022/03/12 05:01:05;;;;;;;11.93;6.22;;;4.70;46.80;;;;;;5016625;28;20152;-78
2022/03/12 05:03:30;;;;;;;10.63;6.10;;;4.60;47.50;;;;;;5015508;28;20046;-78
2022/03/12 05:05:59;;;;;;;11.65;5.65;;;4.60;47.60;;;;;;5016477;28;20487;-78
2022/03/12 05:08:36;;;;;;;10.68;5.40;;;4.50;48.10;;;;;;5016825;28;20493;-79
2022/03/12 05:11:03;;;;;;;14.43;6.35;;;4.40;48.10;;;;;;5016505;28;20045;-78
2022/03/12 05:13:28;;;;;;;11.18;5.90;;;4.40;48.80;;;;;;5016501;28;20042;-78
2022/03/12 05:15:59;;;;;;;12.25;5.75;;;4.30;49.30;;;;;;5016499;28;20049;-79
2022/03/12 05:18:26;;;;;;;13.73;5.70;;;4.40;48.80;;;;;;5016131;28;20048;-79
2022/03/12 05:20:52;;;;;;;9.18;5.45;;;4.30;48.60;;;;;;5016195;28;20505;-79
2022/03/12 05:23:19;;;;;;;12.43;5.47;;;4.30;48.80;;;;;;5014828;28;20042;-78
2022/03/12 05:25:46;;;;;;;11.45;5.28;;;4.30;48.10;;;;;;5016119;28;20116;-78
2022/03/12 05:28:17;;;;;;;9.10;5.07;;;4.30;47.50;;;;;;5014891;28;20100;-79
2022/03/12 05:30:46;;;;;;;10.07;5.22;;;4.30;47.80;;;;;;5016319;28;20126;-79
2022/03/12 05:33:13;;;;;;;10.60;6.13;;;4.20;47.80;;;;;;5031372;28;20428;-79
2022/03/12 05:35:42;;;;;;;11.35;5.93;;;4.30;46.90;;;;;;5016202;28;20038;-79
2022/03/12 05:38:09;;;;;;;9.68;5.35;;;4.20;46.80;;;;;;5015974;28;20042;-78
2022/03/12 05:40:38;;;;;;;10.90;6.35;;;4.20;47.30;;;;;;5016119;28;20750;-79
2022/03/12 05:43:13;;;;;;;11.93;5.53;;;4.10;47.70;;;;;;5030566;28;20053;-78
2022/03/12 05:45:39;;;;;;;9.85;5.40;;;4.30;47.00;;;;;;4998388;28;20050;-79
2022/03/12 05:48:10;;;;;;;11.25;5.45;;;4.30;47.00;;;;;;5015924;28;20038;-79
2022/03/12 05:50:40;;;;;;;10.50;5.30;;;4.30;46.90;;;;;;5015888;28;20046;-78
2022/03/12 05:53:09;;;;;;;12.35;5.65;;;4.30;46.00;;;;;;5015911;28;20126;-79
2022/03/12 05:55:39;;;;;;;11.25;5.43;;;4.40;46.00;;;;;;5015565;28;20049;-78
2022/03/12 05:58:10;;;;;;;9.05;4.88;;;4.40;45.50;;;;;;5015023;28;20049;-79
2022/03/12 06:00:36;;;;;;;10.27;4.82;;;4.50;45.40;;;;;;5015547;28;20049;-78
2022/03/12 06:03:02;;;;;;;9.55;4.63;;;4.50;45.30;;;;;;5015735;28;20053;-79
2022/03/12 06:05:28;;;;;;;11.07;5.32;;;4.60;44.50;;;;;;5015569;28;20042;-78
2022/03/12 06:07:54;;;;;;;11.05;4.93;;;4.70;43.30;;;;;;5015465;28;20050;-78
2022/03/12 06:10:23;;;;;;;9.13;4.47;;;4.70;43.40;;;;;;5015304;28;20034;-79
2022/03/12 06:12:51;;;;;;;9.88;4.55;;;4.70;43.40;;;;;;5014138;28;20034;-79
2022/03/12 06:15:18;;;;;;;11.80;4.78;;;4.70;44.10;;;;;;5014032;28;20113;-78
2022/03/12 06:17:46;;;;;;;9.63;4.88;;;4.70;44.00;;;;;;5014837;28;20046;-78
2022/03/12 06:20:12;;;;;;;9.55;4.43;;;4.70;44.90;;;;;;5014814;28;20045;-79
2022/03/12 06:22:39;;;;;;;12.00;4.95;;;4.80;44.20;;;;;;5014221;28;20480;-79
2022/03/12 06:25:10;;;;;;;11.00;5.55;;;4.80;44.00;;;;;;5014916;28;20455;-78
2022/03/12 06:27:37;;;;;;;9.57;5.10;;;4.80;44.00;;;;;;5015013;28;20125;-79
2022/03/12 06:30:08;;;;;;;12.65;5.40;;;4.90;43.80;;;;;;5014074;28;20485;-78
2022/03/12 06:32:35;;;;;;;9.95;4.68;;;4.90;44.20;;;;;;5015202;28;20113;-79
2022/03/12 06:35:01;;;;;;;8.75;5.03;;;4.90;43.70;;;;;;5014886;28;20046;-79
2022/03/12 06:37:26;;;;;;;10.77;5.72;;;4.90;43.80;;;;;;5014950;28;20064;-79
2022/03/12 06:39:52;;;;;;;10.18;5.03;;;4.90;43.50;;;;;;5013666;28;20084;-78
2022/03/12 06:42:21;;;;;;;10.77;5.07;;;4.90;43.80;;;;;;5014820;28;20373;-78
2022/03/12 06:44:47;;;;;;;11.60;5.63;;;4.90;44.20;;;;;;5014728;28;20058;-78
2022/03/12 06:47:14;;;;;;;9.07;4.88;;;4.90;44.60;;;;;;5014701;28;20511;-78
2022/03/12 06:49:40;;;;;;;8.98;5.22;;;4.90;44.10;;;;;;5014577;28;20515;-79
2022/03/12 06:52:06;;;;;;;9.32;4.60;;;4.90;45.40;;;;;;5014642;28;20038;-78
2022/03/12 06:54:33;;;;;;;9.90;5.53;;;4.90;44.30;;;;;;5013319;28;20038;-78
2022/03/12 06:57:00;;;;;;;10.25;5.50;;;5.00;44.30;;;;;;5014721;28;20045;-80
2022/03/12 06:59:26;;;;;;;8.75;4.93;;;5.00;43.90;;;;;;5013680;28;20041;-79
2022/03/12 07:01:51;;;;;;;11.70;5.43;;;5.10;44.20;;;;;;5014680;28;20038;-79
2022/03/12 07:04:18;;;;;;;12.43;5.65;;;5.10;43.20;;;;;;5014523;28;20077;-80
2022/03/12 07:06:44;;;;;;;9.30;5.28;;;5.30;41.50;;;;;;5014791;28;20042;-78
2022/03/12 07:09:09;;;;;;;10.05;5.20;;;5.30;41.90;;;;;;5014352;28;20044;-79
2022/03/12 07:11:35;;;;;;;13.38;5.57;;;5.30;41.90;;;;;;5012374;28;20052;-79
2022/03/12 07:14:00;;;;;;;9.10;5.10;;;5.40;42.30;;;;;;5010793;28;20441;-79
2022/03/12 07:16:26;;;;;;;10.50;4.78;;;5.50;41.70;;;;;;5012565;28;20058;-79
2022/03/12 07:18:52;;;;;;;11.27;5.05;;;5.60;40.80;;;;;;5012385;28;20119;-78
2022/03/12 07:21:17;;;;;;;11.98;5.18;;;5.70;40.40;;;;;;5011555;28;20076;-79
2022/03/12 07:23:43;;;;;;;10.00;5.03;;;5.70;40.80;;;;;;5012004;28;20595;-79
2022/03/12 07:26:09;;;;;;;8.90;5.13;;;5.60;41.40;;;;;;5012254;28;20147;-78
2022/03/12 07:28:35;;;;;;;10.65;5.47;;;5.60;41.90;;;;;;5011581;28;20057;-79
2022/03/12 07:31:01;;;;;;;10.65;5.43;;;5.60;42.10;;;;;;5011385;28;20460;-79
2022/03/12 07:33:28;;;;;;;10.55;5.15;;;5.50;42.60;;;;;;5004437;28;20509;-79
2022/03/12 07:35:55;;;;;;;9.13;4.82;;;5.50;42.70;;;;;;4991792;28;20030;-79
2022/03/12 07:38:21;;;;;;;11.13;5.25;;;5.50;43.10;;;;;;4991651;28;20042;-79
2022/03/12 07:40:48;;;;;;;11.63;6.25;;;5.50;43.80;;;;;;4990217;28;20059;-79
2022/03/12 07:43:13;;;;;;;12.10;6.43;;;5.50;43.90;;;;;;4973346;28;20428;-79
2022/03/12 07:45:39;;;;;;;9.57;5.13;;;5.40;45.00;;;;;;4992186;28;20054;-79
2022/03/12 07:48:05;;;;;;;12.10;6.00;;;5.40;45.30;;;;;;4991895;28;20054;-79
2022/03/12 07:50:31;;;;;;;11.07;5.45;;;5.50;46.10;;;;;;4990188;28;20086;-79
2022/03/12 07:52:57;;;;;;;9.63;4.88;;;5.60;46.10;;;;;;4991717;28;20080;-79
2022/03/12 07:55:24;;;;;;;12.80;5.50;;;5.70;45.10;;;;;;5002867;28;20049;-79
2022/03/12 07:57:49;;;;;;;10.45;6.18;;;5.80;45.20;;;;;;5000553;28;20474;-79
2022/03/12 08:00:16;;;;;;;9.85;5.50;;;6.00;44.90;;;;;;5002229;28;20489;-79
2022/03/12 08:02:43;;;;;;;13.77;5.40;;;6.10;44.00;;;;;;4991366;28;20493;-79
2022/03/12 08:05:09;;;;;;;11.20;5.50;;;6.20;44.40;;;;;;5006832;28;20088;-78
2022/03/12 08:07:36;;;;;;;8.82;5.22;;;6.30;44.40;;;;;;4990745;28;20062;-78
2022/03/12 08:10:02;;;;;;;12.25;5.97;;;6.50;44.40;;;;;;4991453;28;20073;-80
2022/03/12 08:12:35;;;;;;;13.25;6.05;;;6.60;44.00;;;;;;4998322;28;20557;-79
2022/03/12 08:15:05;;;;;;;10.23;5.60;;;6.70;43.60;;;;;;5000192;28;20054;-79
2022/03/12 08:17:32;;;;;;;14.10;6.18;;;6.90;43.80;;;;;;5007609;28;20133;-79
2022/03/12 08:19:58;;;;;;;10.00;4.93;;;6.90;43.50;;;;;;5010757;28;20037;-78
2022/03/12 08:22:24;;;;;;;12.75;5.63;;;7.00;43.40;;;;;;5022281;28;20455;-79
2022/03/12 08:24:50;;;;;;;11.73;5.20;;;7.10;43.30;;;;;;5011593;28;20038;-79
2022/03/12 08:27:16;;;;;;;10.27;6.10;;;7.20;42.80;;;;;;5014202;28;20168;-79
2022/03/12 08:29:43;;;;;;;9.60;5.72;;;7.30;43.50;;;;;;5015027;28;20053;-79
2022/03/12 08:32:10;;;;;;;13.48;6.88;;;7.40;43.40;;;;;;5014625;28;20488;-79
2022/03/12 08:34:36;;;;;;;11.82;6.30;;;7.50;42.70;;;;;;5013641;28;20050;-79
2022/03/12 08:37:03;;;;;;;14.20;5.20;;;7.60;43.00;;;;;;5014848;28;20077;-78
2022/03/12 08:39:29;;;;;;;10.95;6.18;;;7.80;43.90;;;;;;4996938;28;20042;-79
2022/03/12 08:41:55;;;;;;;13.57;6.25;;;7.90;43.00;;;;;;5013836;28;20042;-79
2022/03/12 08:44:21;;;;;;;11.85;6.32;;;7.90;42.50;;;;;;5014882;28;20408;-80
2022/03/12 08:46:47;;;;;;;11.70;6.10;;;8.10;42.70;;;;;;5014689;28;20049;-79
2022/03/12 08:49:13;;;;;;;12.35;5.57;;;8.20;42.00;;;;;;5014880;28;20046;-80
2022/03/12 08:51:41;;;;;;;18.58;6.10;;;8.40;42.30;;;;;;5013514;28;20046;-80
2022/03/12 08:54:08;;;;;;;11.13;5.72;;;8.50;41.30;;;;;;5014199;28;20046;-80
2022/03/12 08:56:35;;;;;;;17.52;7.22;;;8.60;41.20;;;;;;5014490;28;20050;-80
2022/03/12 08:59:01;;;;;;;12.32;5.78;;;8.80;41.30;;;;;;5014103;28;20461;-80
2022/03/12 09:01:27;;;;;;;12.48;5.68;;;9.00;41.60;;;;;;5014138;28;20052;-80
2022/03/12 09:03:52;;;;;;;11.73;6.45;;;9.30;40.80;;;;;;5014406;28;20124;-80
2022/03/12 09:06:18;;;;;;;12.50;5.60;;;9.60;39.50;;;;;;5014166;28;20116;-80
2022/03/12 09:08:48;;;;;;;13.57;6.05;;;9.80;39.20;;;;;;5013699;28;20081;-80
2022/03/12 09:11:18;;;;;;;10.55;5.65;;;10.00;38.90;;;;;;5014132;28;20038;-80
2022/03/12 09:13:44;;;;;;;11.95;6.28;;;10.60;38.60;;;;;;5014474;28;20053;-80
2022/03/12 09:16:09;;;;;;;16.17;6.43;;;10.10;38.80;;;;;;5012759;28;20058;-79
2022/03/12 09:18:35;;;;;;;12.43;6.65;;;10.10;40.10;;;;;;4996420;28;20099;-80
2022/03/12 09:21:00;;;;;;;11.10;6.50;;;10.30;41.00;;;;;;5014645;28;20100;-80
2022/03/12 09:23:26;;;;;;;10.35;5.97;;;10.60;40.90;;;;;;5014168;28;20034;-80
2022/03/12 09:25:52;;;;;;;11.00;5.43;;;10.60;41.10;;;;;;4996538;28;20054;-80
2022/03/12 09:28:19;;;;;;;13.38;7.00;;;10.80;40.40;;;;;;5014057;28;20165;-80
2022/03/12 09:30:50;;;;;;;21.35;7.45;;;11.00;40.40;;;;;;5013752;28;20049;-80
2022/03/12 09:33:17;;;;;;;14.40;6.95;;;11.10;40.20;;;;;;5013279;28;20126;-80
2022/03/12 09:35:43;;;;;;;12.23;6.57;;;11.20;40.00;;;;;;5012545;28;20469;-80
2022/03/12 09:38:10;;;;;;;11.10;6.40;;;11.30;40.70;;;;;;5012471;28;20042;-80
2022/03/12 09:40:36;;;;;;;12.75;5.95;;;11.50;41.50;;;;;;5014435;28;20049;-80
2022/03/12 09:43:02;;;;;;;12.05;6.38;;;11.60;41.20;;;;;;5013830;28;20141;-80
2022/03/12 09:45:28;;;;;;;9.65;5.93;;;11.80;41.30;;;;;;5014389;28;20046;-80
2022/03/12 09:47:54;;;;;;;11.85;5.93;;;12.00;40.40;;;;;;5014091;28;20099;-80
2022/03/12 09:50:21;;;;;;;12.85;6.40;;;12.40;39.50;;;;;;5013671;28;20447;-80
2022/03/12 09:52:47;;;;;;;10.18;5.90;;;12.60;39.30;;;;;;5012049;28;20054;-80
2022/03/12 09:55:13;;;;;;;13.98;6.75;;;12.80;39.40;;;;;;5013427;28;20055;-80
2022/03/12 09:57:39;;;;;;;13.85;7.40;;;13.00;38.30;;;;;;5012245;28;20050;-80
2022/03/12 10:00:06;;;;;;;13.93;7.78;;;13.10;38.20;;;;;;5013742;28;20507;-80
2022/03/12 10:02:32;;;;;;;11.32;6.75;;;13.30;37.70;;;;;;5012814;28;20115;-80
2022/03/12 10:04:58;;;;;;;10.50;6.85;;;13.40;38.00;;;;;;5013278;28;20042;-80
2022/03/12 10:07:24;;;;;;;14.18;6.80;;;13.40;39.10;;;;;;5016295;28;20052;-81
2022/03/12 10:09:50;;;;;;;10.93;6.32;;;13.40;40.10;;;;;;5028797;28;20046;-80
2022/03/12 10:12:15;;;;;;;12.10;6.90;;;13.40;40.40;;;;;;5006723;28;20042;-80
2022/03/12 10:14:41;;;;;;;9.80;6.18;;;13.60;41.20;;;;;;5003594;28;20120;-79
2022/03/12 10:17:07;;;;;;;11.77;6.57;;;13.90;41.10;;;;;;5003542;28;20042;-80
2022/03/12 10:19:38;;;;;;;9.55;5.85;;;13.70;42.00;;;;;;5006353;28;20094;-77
2022/03/12 10:22:05;;;;;;;11.70;6.43;;;13.80;43.60;;;;;;5015712;28;20056;-80
2022/03/12 10:24:32;;;;;;;10.48;6.68;;;13.90;44.30;;;;;;5014945;28;20045;-80
2022/03/12 10:26:58;;;;;;;13.75;6.72;;;14.10;43.30;;;;;;4999326;28;20106;-80
2022/03/12 10:29:24;;;;;;;12.27;6.32;;;14.20;44.60;;;;;;5015479;28;20081;-80
2022/03/12 10:31:49;;;;;;;12.15;7.25;;;14.60;44.30;;;;;;4998247;28;20054;-80
2022/03/12 10:34:23;;;;;;;11.93;6.93;;;14.10;44.80;;;;;;4998768;28;20049;-80
2022/03/12 10:36:54;;;;;;;10.88;6.68;;;14.20;46.30;;;;;;4997768;28;20088;-81
2022/03/12 10:39:35;;;;;;;11.70;6.22;;;14.10;47.80;;;;;;5014744;28;20477;-81
2022/03/12 10:42:06;;;;;;;10.98;6.40;;;14.30;48.40;;;;;;4999479;28;20096;-81
2022/03/12 10:44:37;;;;;;;11.27;6.40;;;14.40;48.40;;;;;;5013065;28;20471;-81
2022/03/12 10:47:12;;;;;;;14.63;7.20;;;14.40;50.20;;;;;;5014608;28;20038;-81
2022/03/12 10:49:37;;;;;;;15.60;7.53;;;14.30;51.90;;;;;;5014888;28;20038;-81
2022/03/12 10:52:04;;;;;;;11.50;6.40;;;14.90;52.70;;;;;;5012961;28;20385;-81
2022/03/12 10:54:30;;;;;;;13.27;6.95;;;14.60;54.40;;;;;;5014483;28;20065;-81
2022/03/12 10:56:56;;;;;;;12.85;7.13;;;14.80;52.50;;;;;;5014771;28;20366;-81
2022/03/12 10:59:24;;;;;;;14.30;7.13;;;14.90;52.30;;;;;;5029569;28;20105;-82
2022/03/12 11:01:59;;;;;;;12.60;7.18;;;14.90;52.50;;;;;;5013165;28;20100;-82
2022/03/12 11:04:30;;;;;;;10.07;6.68;;;15.00;52.20;;;;;;5013199;28;20141;-81
2022/03/12 11:07:24;;;;;;;13.73;6.68;;;15.10;51.70;;;;;;5012871;28;20050;-81
2022/03/12 11:09:51;;;;;;;9.32;6.32;;;15.30;50.80;;;;;;5011583;28;20072;-78
2022/03/12 11:12:30;;;;;;;15.27;6.80;;;15.40;48.70;;;;;;5012389;28;20049;-77
2022/03/12 11:15:14;;;;;;;11.85;6.72;;;15.40;48.30;;;;;;5011186;28;20363;-78
2022/03/12 11:17:49;;;;;;;12.02;6.70;;;15.20;49.30;;;;;;4995102;28;20523;-79
2022/03/12 11:20:28;;;;;;;11.90;7.22;;;15.10;50.80;;;;;;5010251;28;20053;-79
2022/03/12 11:23:30;;;;;;;14.77;7.32;;;15.00;51.10;;;;;;5010189;28;20081;-79
2022/03/12 11:25:59;;;;;;;12.70;7.32;;;15.10;52.20;;;;;;4962925;28;20626;-79
2022/03/12 11:28:25;;;;;;;13.38;8.10;;;15.20;52.00;;;;;;5010278;28;20045;-80
2022/03/12 11:30:51;;;;;;;11.85;6.72;;;15.50;51.70;;;;;;5010473;28;20057;-80
2022/03/12 11:33:20;;;;;;;13.02;7.57;;;15.70;48.90;;;;;;5009869;28;20046;-79
2022/03/12 11:35:49;;;;;;;11.05;6.18;;;15.60;49.90;;;;;;5009775;28;20108;-79
2022/03/12 11:38:20;;;;;;;11.35;6.95;;;15.70;48.50;;;;;;4993569;28;20046;-79
2022/03/12 11:40:51;;;;;;;13.85;7.13;;;15.80;48.60;;;;;;5010847;28;20050;-79
2022/03/12 11:43:23;;;;;;;11.98;7.25;;;15.70;50.30;;;;;;4993640;28;20068;-79
2022/03/12 11:45:49;;;;;;;10.13;6.65;;;15.60;50.60;;;;;;4993228;28;20046;-79
2022/03/12 11:48:15;;;;;;;10.60;7.00;;;15.90;51.00;;;;;;4992990;28;20444;-79
2022/03/12 11:50:41;;;;;;;9.88;6.50;;;16.10;51.10;;;;;;4993563;28;20799;-79
2022/03/12 11:53:08;;;;;;;9.73;6.18;;;16.10;51.70;;;;;;5009505;28;20128;-79
2022/03/12 11:55:34;;;;;;;12.60;6.82;;;16.10;50.10;;;;;;4994078;28;20550;-80
2022/03/12 11:57:59;;;;;;;11.90;5.85;;;15.70;53.00;;;;;;5011881;28;20056;-81
2022/03/12 12:00:30;;;;;;;15.23;6.95;;;15.70;53.40;;;;;;5010797;28;20046;-80
2022/03/12 12:02:57;;;;;;;12.75;6.93;;;15.70;53.60;;;;;;5012771;28;20028;-80
2022/03/12 12:05:25;;;;;;;12.65;6.55;;;15.70;56.30;;;;;;5013545;28;20141;-80
2022/03/12 12:07:52;;;;;;;10.50;6.53;;;15.90;54.90;;;;;;5014057;28;20041;-80
2022/03/12 12:10:31;;;;;;;11.77;6.65;;;15.90;55.30;;;;;;5013094;28;20507;-80
2022/03/12 12:12:58;;;;;;;11.07;6.53;;;16.20;55.60;;;;;;5013057;28;20046;-80
2022/03/12 12:15:34;;;;;;;11.20;6.38;;;16.10;55.80;;;;;;5013056;28;20049;-80
2022/03/12 12:18:02;;;;;;;10.85;5.57;;;16.30;54.10;;;;;;5013323;28;20063;-80
2022/03/12 12:20:29;;;;;;;11.50;6.30;;;16.40;52.10;;;;;;5013514;28;20046;-80
2022/03/12 12:22:56;;;;;;;12.07;6.68;;;16.40;52.30;;;;;;5013273;28;20034;-79
2022/03/12 12:25:22;;;;;;;9.23;6.20;;;16.20;55.10;;;;;;5012149;28;20073;-80
2022/03/12 12:27:50;;;;;;;11.52;5.70;;;16.60;55.30;;;;;;4995665;28;20135;-81
2022/03/12 12:30:39;;;;;;;10.35;6.35;;;16.80;50.90;;;;;;5012651;28;20070;-81
2022/03/12 12:33:24;;;;;;;11.02;5.88;;;17.00;52.00;;;;;;5013158;28;20548;-80
2022/03/12 12:35:52;;;;;;;8.43;5.30;;;17.20;51.00;;;;;;5012951;28;20119;-80
2022/03/12 12:38:21;;;;;;;10.43;5.35;;;16.90;50.80;;;;;;5013185;28;20124;-81
2022/03/12 12:40:54;;;;;;;10.25;6.03;;;16.80;51.20;;;;;;5013457;28;20121;-80
2022/03/12 12:43:23;;;;;;;9.85;5.85;;;17.10;49.90;;;;;;4995508;28;20050;-81
2022/03/12 12:45:55;;;;;;;8.27;5.25;;;17.10;49.80;;;;;;5013556;28;20042;-80
2022/03/12 12:48:50;;;;;;;8.70;5.03;;;16.80;51.50;;;;;;5012052;28;20085;-80
2022/03/12 12:51:21;;;;;;;9.18;5.07;;;17.00;51.90;;;;;;4998116;28;20061;-79